Time;durP1;ratioP1;P1;durP2;ratioP2;P2;SDS_P1;SDS_P2;PMS_P1;PMS_P2;Temp;Humidity;BMP_temperature;BMP_pressure;BME280_temperature;BME280_humidity;BME280_pressure;Samples;Min_cycle;Max_cycle;Signal;HPM_P1;HPM_P2
2023/05/30 00:00:00;;;;;;;5.15;3.67;;;;;;;15.90;50.39;95906.81;6281828;22;20157;-79
2023/05/30 00:02:25;;;;;;;4.68;3.65;;;;;;;15.91;50.28;95903.25;6282070;22;20171;-80
2023/05/30 00:04:51;;;;;;;6.40;4.10;;;;;;;15.81;50.49;95908.69;6255729;22;20172;-80
2023/05/30 00:07:17;;;;;;;7.20;4.00;;;;;;;15.68;51.44;95908.41;6255576;22;20250;-79
2023/05/30 00:09:43;;;;;;;5.25;3.40;;;;;;;15.70;51.29;95913.47;6256165;22;20166;-79
2023/05/30 00:12:08;;;;;;;6.13;4.10;;;;;;;15.74;51.19;95914.78;6255709;22;20171;-80
2023/05/30 00:14:36;;;;;;;9.48;3.65;;;;;;;15.68;51.02;95921.50;6308510;22;20215;-80
2023/05/30 00:17:02;;;;;;;9.07;4.53;;;;;;;15.53;51.98;95923.97;6256449;22;20162;-80
2023/05/30 00:19:28;;;;;;;8.20;3.90;;;;;;;15.56;51.94;95923.66;6258333;22;20172;-80
2023/05/30 00:21:54;;;;;;;7.57;4.05;;;;;;;15.56;51.81;95922.84;6293869;22;20190;-79
2023/05/30 00:24:20;;;;;;;5.73;3.70;;;;;;;15.50;52.54;95919.06;6282851;22;20187;-78
2023/05/30 00:26:45;;;;;;;5.88;3.88;;;;;;;15.47;52.27;95916.00;6279370;22;20144;-81
2023/05/30 00:29:11;;;;;;;6.93;4.20;;;;;;;15.43;52.50;95922.53;6286920;22;20147;-80
2023/05/30 00:31:36;;;;;;;6.20;4.40;;;;;;;15.46;52.37;95925.66;6284712;22;20174;-78
2023/05/30 00:34:01;;;;;;;5.40;3.92;;;;;;;15.42;52.44;95918.28;6258768;22;20575;-80
2023/05/30 00:36:27;;;;;;;7.63;4.35;;;;;;;15.48;52.45;95915.81;6283556;22;20511;-80
2023/05/30 00:38:52;;;;;;;6.68;3.88;;;;;;;15.48;52.24;95922.84;6284260;22;20178;-81
2023/05/30 00:41:17;;;;;;;6.97;3.92;;;;;;;15.35;52.46;95922.56;6284194;22;20203;-81
2023/05/30 00:43:43;;;;;;;4.85;3.80;;;;;;;15.38;52.39;95924.84;6258147;22;20156;-78
2023/05/30 00:46:11;;;;;;;7.80;3.95;;;;;;;15.30;52.73;95931.72;6263340;22;20187;-78
2023/05/30 00:48:38;;;;;;;7.27;4.43;;;;;;;15.15;53.44;95932.59;6282171;22;20211;-81
2023/05/30 00:51:05;;;;;;;9.47;4.73;;;;;;;15.20;53.35;95930.28;6302529;22;20159;-79
2023/05/30 00:53:31;;;;;;;5.35;4.00;;;;;;;15.19;53.36;95926.00;6284130;22;20226;-78
2023/05/30 00:55:56;;;;;;;7.23;4.60;;;;;;;15.19;53.37;95926.00;6282520;22;20174;-77
2023/05/30 00:58:22;;;;;;;5.23;4.10;;;;;;;15.27;52.91;95923.38;6289463;22;20179;-80
2023/05/30 01:00:48;;;;;;;6.38;4.00;;;;;;;15.07;53.96;95927.34;6284711;22;20152;-80
2023/05/30 01:03:15;;;;;;;8.20;4.05;;;;;;;15.07;53.86;95924.75;6258480;22;20501;-79
2023/05/30 01:05:41;;;;;;;6.63;4.30;;;;;;;15.15;53.70;95924.72;6257661;22;20179;-80
2023/05/30 01:08:07;;;;;;;5.83;4.13;;;;;;;15.01;54.13;95921.78;6257020;22;20676;-80
2023/05/30 01:10:33;;;;;;;9.70;4.57;;;;;;;15.13;53.71;95924.09;6283080;22;20156;-79
2023/05/30 01:13:19;;;;;;;7.57;4.00;;;;;;;15.08;54.10;95923.75;6281962;22;20231;-79
2023/05/30 01:15:49;;;;;;;7.60;4.20;;;;;;;15.07;53.95;95922.94;6281312;22;20186;-78
2023/05/30 01:18:25;;;;;;;8.03;4.43;;;;;;;15.04;54.25;95923.28;6256285;22;20279;-80
2023/05/30 01:20:54;;;;;;;6.60;4.30;;;;;;;14.96;54.63;95924.09;6255638;22;20159;-79
2023/05/30 01:23:49;;;;;;;8.27;4.27;;;;;;;14.90;55.00;95922.16;6256378;22;20186;-79
2023/05/30 01:26:21;;;;;;;7.10;4.43;;;;;;;14.83;55.21;95915.13;6254060;22;20164;-79
2023/05/30 01:28:48;;;;;;;6.97;4.40;;;;;;;14.86;55.23;95920.84;6255668;22;20160;-80
2023/05/30 01:31:14;;;;;;;7.53;4.77;;;;;;;14.94;55.05;95915.63;6255664;22;20605;-78
2023/05/30 01:33:41;;;;;;;5.57;4.23;;;;;;;14.94;54.89;95910.38;6255762;22;20152;-80
2023/05/30 01:36:07;;;;;;;5.77;4.20;;;;;;;14.85;55.19;95903.53;6255481;22;20735;-82
2023/05/30 01:38:34;;;;;;;6.70;4.23;;;;;;;14.79;55.81;95904.19;6259412;22;20156;-78
2023/05/30 01:41:00;;;;;;;6.10;4.30;;;;;;;14.81;55.61;95902.22;6283720;22;20159;-78
2023/05/30 01:43:44;;;;;;;5.83;4.97;;;;;;;14.71;55.99;95899.78;6282655;22;20243;-80
2023/05/30 01:46:27;;;;;;;6.30;4.27;;;;;;;14.83;55.71;95907.28;6307709;22;20311;-79
2023/05/30 01:49:16;;;;;;;6.07;3.93;;;;;;;14.73;56.31;95904.84;6308516;22;20156;-79
2023/05/30 01:51:49;;;;;;;6.50;4.50;;;;;;;14.76;56.26;95899.31;6280998;22;20544;-79
2023/05/30 01:54:16;;;;;;;7.40;4.27;;;;;;;14.72;56.16;95901.41;6255900;22;20148;-80
2023/05/30 01:56:48;;;;;;;6.37;4.43;;;;;;;14.65;56.85;95904.84;6280706;22;20159;-80
2023/05/30 01:59:15;;;;;;;8.53;4.20;;;;;;;14.59;57.05;95908.13;6254998;22;20160;-79
2023/05/30 02:01:41;;;;;;;6.47;4.60;;;;;;;14.51;57.64;95905.50;6255586;22;20171;-78
2023/05/30 02:04:06;;;;;;;7.00;4.37;;;;;;;14.50;57.52;95912.53;6308414;22;20156;-79
2023/05/30 02:06:32;;;;;;;5.90;4.13;;;;;;;14.48;57.42;95906.63;6254850;22;20487;-80
2023/05/30 02:08:57;;;;;;;8.83;4.83;;;;;;;14.39;58.29;95904.97;6281124;22;20156;-80
2023/05/30 02:11:22;;;;;;;5.67;4.30;;;;;;;14.35;58.56;95899.25;6255086;22;20160;-78
2023/05/30 02:13:47;;;;;;;9.03;4.90;;;;;;;14.20;59.04;95900.84;6280483;22;20152;-79
2023/05/30 02:16:13;;;;;;;6.70;4.37;;;;;;;14.23;59.10;95900.56;6279705;22;20155;-80
2023/05/30 02:18:40;;;;;;;7.43;4.60;;;;;;;14.13;59.77;95899.88;6254529;22;20159;-79
2023/05/30 02:21:06;;;;;;;8.60;4.87;;;;;;;14.24;59.43;95906.59;6255135;22;20152;-79
2023/05/30 02:23:32;;;;;;;6.77;4.40;;;;;;;14.16;59.96;95912.63;6254997;22;20563;-80
2023/05/30 02:25:57;;;;;;;5.93;4.20;;;;;;;14.06;60.14;95907.53;6277476;22;20174;-79
2023/05/30 02:28:22;;;;;;;7.60;5.13;;;;;;;14.03;60.18;95910.47;6254247;22;20160;-79
2023/05/30 02:30:48;;;;;;;7.47;4.47;;;;;;;14.06;60.07;95904.94;6254139;22;20159;-79
2023/05/30 02:33:13;;;;;;;7.30;4.93;;;;;;;14.02;60.21;95902.78;6279706;22;20171;-78
2023/05/30 02:35:38;;;;;;;5.17;4.50;;;;;;;13.94;60.81;95902.75;6279731;22;20148;-79
2023/05/30 02:38:03;;;;;;;6.13;4.37;;;;;;;13.95;60.49;95907.81;6279058;22;20156;-79
2023/05/30 02:40:29;;;;;;;6.77;4.37;;;;;;;13.97;60.71;95918.13;6279783;22;20155;-80
2023/05/30 02:42:54;;;;;;;9.43;4.50;;;;;;;14.00;60.57;95913.41;6253358;22;20175;-79
2023/05/30 02:45:19;;;;;;;7.17;4.57;;;;;;;13.85;61.24;95914.97;6253482;22;20174;-79
2023/05/30 02:47:45;;;;;;;7.93;4.57;;;;;;;13.76;61.87;95919.34;6306198;22;20532;-79
2023/05/30 02:50:10;;;;;;;8.13;4.67;;;;;;;13.75;61.93;95917.72;6279859;22;20152;-79
2023/05/30 02:52:36;;;;;;;6.60;4.43;;;;;;;13.66;62.33;95918.66;6253678;22;20682;-79
2023/05/30 02:55:01;;;;;;;6.90;4.53;;;;;;;13.65;62.62;95922.25;6253674;22;20147;-78
2023/05/30 02:57:26;;;;;;;6.90;4.87;;;;;;;13.67;62.68;95909.88;6253203;22;20171;-79
2023/05/30 02:59:52;;;;;;;7.43;4.70;;;;;;;13.66;62.65;95913.44;6279757;22;20151;-79
2023/05/30 03:02:17;;;;;;;9.07;4.63;;;;;;;13.54;63.55;95909.50;6279544;22;20199;-80
2023/05/30 03:04:46;;;;;;;9.37;4.87;;;;;;;13.57;63.25;95914.41;6253733;22;20640;-79
2023/05/30 03:07:17;;;;;;;9.37;4.80;;;;;;;13.52;63.80;95914.06;6279324;22;20241;-80
2023/05/30 03:09:43;;;;;;;7.47;4.40;;;;;;;13.54;63.13;95917.31;6279230;22;20163;-80
2023/05/30 03:12:08;;;;;;;8.97;5.10;;;;;;;13.55;63.27;95916.34;6279287;22;20172;-79
2023/05/30 03:14:34;;;;;;;8.43;4.53;;;;;;;13.48;63.88;95910.94;6279470;22;20144;-79
2023/05/30 03:16:59;;;;;;;9.40;5.50;;;;;;;13.43;63.73;95920.19;6253650;22;20498;-79
2023/05/30 03:19:25;;;;;;;5.97;4.20;;;;;;;13.48;64.11;95920.56;6254137;22;20172;-78
2023/05/30 03:21:51;;;;;;;5.63;4.30;;;;;;;13.46;63.88;95928.53;6279236;22;20171;-79
2023/05/30 03:24:16;;;;;;;7.47;5.20;;;;;;;13.35;64.77;95931.44;6306743;22;20174;-80
2023/05/30 03:26:42;;;;;;;8.07;4.90;;;;;;;13.30;64.79;95923.25;6251092;22;20661;-80
2023/05/30 03:29:07;;;;;;;7.17;4.60;;;;;;;13.42;64.34;95921.16;6253853;22;20663;-78
2023/05/30 03:31:33;;;;;;;6.27;4.33;;;;;;;13.37;64.67;95931.28;6279539;22;20168;-79
2023/05/30 03:33:58;;;;;;;6.80;4.57;;;;;;;13.31;65.30;95932.69;6254227;22;20179;-78
2023/05/30 03:36:25;;;;;;;7.47;5.30;;;;;;;13.32;65.54;95929.94;6253203;22;20592;-81
2023/05/30 03:38:52;;;;;;;7.40;4.33;;;;;;;13.35;65.09;95928.00;6254407;22;20235;-80
2023/05/30 03:41:18;;;;;;;10.03;4.47;;;;;;;13.35;64.82;95930.63;6253770;22;20167;-79
2023/05/30 03:43:43;;;;;;;6.27;4.73;;;;;;;13.43;64.32;95928.00;6253512;22;20498;-78
2023/05/30 03:46:08;;;;;;;5.33;4.70;;;;;;;13.55;64.00;95932.00;6278154;22;20168;-79
2023/05/30 03:48:34;;;;;;;6.53;4.47;;;;;;;13.61;63.54;95926.16;6279360;22;20209;-78
2023/05/30 03:50:59;;;;;;;5.73;4.10;;;;;;;13.64;63.45;95935.47;6253260;22;20494;-78
2023/05/30 03:53:24;;;;;;;9.17;4.97;;;;;;;13.67;63.09;95930.75;6278511;22;20176;-78
2023/05/30 03:55:50;;;;;;;8.57;4.70;;;;;;;13.76;63.15;95927.19;6279639;22;20148;-79
2023/05/30 03:58:15;;;;;;;5.73;4.67;;;;;;;13.89;62.92;95939.81;6254697;22;20499;-80
2023/05/30 04:00:40;;;;;;;6.60;4.40;;;;;;;13.73;63.45;95934.53;6254502;22;20160;-79
2023/05/30 04:03:06;;;;;;;8.23;4.60;;;;;;;13.98;62.76;95930.22;6254869;22;20176;-79
2023/05/30 04:05:31;;;;;;;8.23;4.70;;;;;;;14.07;62.21;95942.31;6255134;22;20172;-79
2023/05/30 04:07:56;;;;;;;6.93;4.33;;;;;;;14.15;61.85;95937.91;6279955;22;20164;-79
2023/05/30 04:10:22;;;;;;;8.17;5.10;;;;;;;14.31;61.38;95947.59;6281016;22;20659;-79
2023/05/30 04:12:47;;;;;;;6.40;4.40;;;;;;;14.34;61.35;95941.22;6280753;22;20176;-77
2023/05/30 04:15:13;;;;;;;10.23;4.67;;;;;;;14.05;62.25;95945.09;6280849;22;20201;-79
2023/05/30 04:17:38;;;;;;;8.43;5.03;;;;;;;14.55;60.51;95951.22;6254190;22;20204;-79
2023/05/30 04:20:05;;;;;;;8.10;4.53;;;;;;;14.51;60.29;95955.97;6254956;22;20167;-78
2023/05/30 04:22:32;;;;;;;7.10;4.30;;;;;;;14.70;59.62;95952.22;6255042;22;20263;-78
2023/05/30 04:24:58;;;;;;;9.63;4.80;;;;;;;14.86;59.74;95960.06;6253278;22;20279;-78
2023/05/30 04:27:27;;;;;;;8.43;4.57;;;;;;;15.27;58.31;95963.44;6254661;22;20156;-79
2023/05/30 04:29:53;;;;;;;7.50;4.60;;;;;;;14.96;58.42;95963.34;6255915;22;20152;-78
2023/05/30 04:32:18;;;;;;;7.97;4.57;;;;;;;15.27;58.36;95965.25;6255601;22;20229;-79
2023/05/30 04:34:44;;;;;;;6.55;4.60;;;;;;;15.78;56.09;95982.31;6307752;22;20148;-79
2023/05/30 04:37:11;;;;;;;8.10;4.13;;;;;;;16.15;54.89;95965.13;6254315;22;20196;-78
2023/05/30 04:39:37;;;;;;;8.63;4.60;;;;;;;16.39;53.50;95975.50;6308299;22;20175;-78
2023/05/30 04:42:04;;;;;;;6.15;4.70;;;;;;;16.34;53.31;95977.00;6280809;22;20233;-79
2023/05/30 04:44:37;;;;;;;6.20;4.22;;;;;;;16.61;53.36;95963.41;6281691;22;20548;-79
2023/05/30 04:47:04;;;;;;;7.05;4.60;;;;;;;16.79;52.35;95960.53;6255849;22;20226;-79
2023/05/30 04:49:30;;;;;;;6.97;4.57;;;;;;;17.27;51.16;95971.56;6280897;22;20196;-78
2023/05/30 04:51:56;;;;;;;8.80;4.75;;;;;;;17.12;51.65;95982.03;6255185;22;20186;-79
2023/05/30 04:54:21;;;;;;;5.93;4.70;;;;;;;16.91;51.99;95979.28;6280631;22;20144;-78
2023/05/30 04:56:47;;;;;;;5.88;4.60;;;;;;;17.12;51.01;95986.47;6254519;22;20167;-79
2023/05/30 04:59:12;;;;;;;8.32;4.65;;;;;;;17.68;49.62;95987.75;6280309;22;20144;-77
2023/05/30 05:01:38;;;;;;;5.80;4.50;;;;;;;18.11;48.69;95985.31;6280505;22;20687;-78
2023/05/30 05:04:04;;;;;;;7.55;4.10;;;;;;;18.27;48.85;95994.78;6254616;22;20182;-78
2023/05/30 05:06:29;;;;;;;7.15;4.32;;;;;;;17.77;49.70;95996.38;6253608;22;20614;-79
2023/05/30 05:08:55;;;;;;;6.72;4.40;;;;;;;17.60;49.26;95994.88;6280054;22;20247;-79
2023/05/30 05:11:21;;;;;;;6.95;3.83;;;;;;;18.15;47.83;95996.25;6255070;22;20166;-78
2023/05/30 05:13:46;;;;;;;8.07;4.80;;;;;;;17.72;49.89;95991.66;6307351;22;20231;-79
2023/05/30 05:16:12;;;;;;;7.30;4.32;;;;;;;17.19;49.96;95990.84;6279490;22;20247;-78
2023/05/30 05:18:37;;;;;;;9.45;4.72;;;;;;;17.56;49.18;95989.97;6254180;22;20163;-78
2023/05/30 05:21:02;;;;;;;5.88;4.30;;;;;;;17.61;48.97;95993.88;6254350;22;20493;-78
2023/05/30 05:23:28;;;;;;;9.52;4.40;;;;;;;17.65;48.50;95985.47;6279873;22;20180;-79
2023/05/30 05:25:54;;;;;;;8.18;4.82;;;;;;;17.62;48.55;95988.47;6252044;22;20258;-78
2023/05/30 05:28:19;;;;;;;7.18;4.82;;;;;;;17.10;50.49;95997.16;6254139;22;20175;-79
2023/05/30 05:30:48;;;;;;;6.55;4.60;;;;;;;17.21;50.20;96004.59;6254220;22;20162;-79
2023/05/30 05:33:15;;;;;;;4.90;4.15;;;;;;;17.11;50.86;95998.78;6280258;22;20172;-78
2023/05/30 05:35:40;;;;;;;5.88;4.60;;;;;;;16.85;51.15;96000.94;6254446;22;20159;-77
2023/05/30 05:38:06;;;;;;;6.15;4.78;;;;;;;17.41;49.99;96001.47;6253743;22;20160;-78
2023/05/30 05:40:31;;;;;;;8.43;4.47;;;;;;;17.23;49.83;96007.88;6254212;22;20159;-77
2023/05/30 05:42:56;;;;;;;6.65;4.60;;;;;;;17.40;49.82;96011.13;6253790;22;20501;-78
2023/05/30 05:45:22;;;;;;;6.13;4.47;;;;;;;17.44;49.75;96015.06;6279473;22;20189;-77
2023/05/30 05:47:47;;;;;;;7.13;4.57;;;;;;;17.64;50.17;96012.72;6279124;22;20164;-77
2023/05/30 05:50:12;;;;;;;10.52;5.15;;;;;;;17.27;50.48;96016.19;6307087;22;20144;-78
2023/05/30 05:52:37;;;;;;;7.97;4.50;;;;;;;17.67;49.14;96011.53;6279533;22;20221;-78
2023/05/30 05:55:03;;;;;;;7.55;5.00;;;;;;;18.26;47.63;96017.63;6253674;22;20159;-78
2023/05/30 05:57:28;;;;;;;7.50;4.78;;;;;;;18.26;46.75;96022.88;6278847;22;20258;-78
2023/05/30 05:59:54;;;;;;;7.03;4.60;;;;;;;18.71;46.22;96026.25;6253281;22;20199;-79
2023/05/30 06:02:19;;;;;;;6.30;4.43;;;;;;;18.27;46.67;96024.50;6279745;22;20180;-78
2023/05/30 06:04:45;;;;;;;6.93;4.18;;;;;;;18.35;46.97;96024.41;6253925;22;20182;-78
2023/05/30 06:07:10;;;;;;;7.03;4.90;;;;;;;18.76;46.07;96018.63;6253242;22;20639;-79
2023/05/30 06:09:36;;;;;;;8.68;4.68;;;;;;;17.99;47.90;96020.91;6279770;22;20155;-78
2023/05/30 06:12:01;;;;;;;6.80;4.35;;;;;;;19.17;45.33;96023.25;6254142;22;20194;-79
2023/05/30 06:14:27;;;;;;;5.90;4.57;;;;;;;18.56;46.16;96031.53;6279824;22;20203;-79
2023/05/30 06:16:53;;;;;;;9.57;5.03;;;;;;;18.90;45.51;96041.44;6278856;22;20476;-79
2023/05/30 06:19:18;;;;;;;6.75;3.92;;;;;;;18.57;45.98;96040.25;6274058;22;20634;-78
2023/05/30 06:21:43;;;;;;;8.73;4.97;;;;;;;18.11;47.91;96036.06;6274293;22;20205;-78
2023/05/30 06:24:08;;;;;;;5.47;4.10;;;;;;;18.74;46.07;96040.88;6274317;22;20165;-79
2023/05/30 06:26:34;;;;;;;8.00;4.68;;;;;;;17.85;47.66;96037.50;6297473;22;20281;-78
2023/05/30 06:28:59;;;;;;;7.22;4.30;;;;;;;17.46;49.00;96035.88;6299938;22;20153;-79
2023/05/30 06:31:24;;;;;;;7.18;4.47;;;;;;;17.32;50.14;96037.50;6306322;22;20184;-79
2023/05/30 06:33:50;;;;;;;5.78;4.00;;;;;;;17.50;49.70;96039.78;6300833;22;20164;-78
2023/05/30 06:36:15;;;;;;;8.88;4.60;;;;;;;17.96;48.25;96045.75;6327337;22;20152;-78
2023/05/30 06:38:40;;;;;;;6.45;4.45;;;;;;;18.35;47.24;96049.88;6303221;22;20193;-78
2023/05/30 06:41:06;;;;;;;6.13;4.15;;;;;;;18.69;47.08;96054.56;6328364;22;20152;-78
2023/05/30 06:43:31;;;;;;;5.50;4.45;;;;;;;19.54;44.13;96051.13;6278211;22;20180;-79
2023/05/30 06:45:56;;;;;;;8.90;4.43;;;;;;;18.72;45.47;96054.19;6275104;22;20183;-79
2023/05/30 06:48:22;;;;;;;7.80;4.32;;;;;;;18.22;47.11;96057.63;6275338;22;20207;-79
2023/05/30 06:50:47;;;;;;;5.32;4.22;;;;;;;17.59;48.93;96051.03;6300714;22;20202;-80
2023/05/30 06:53:12;;;;;;;9.13;4.72;;;;;;;17.93;47.86;96058.41;6275344;22;20221;-78
2023/05/30 06:55:38;;;;;;;7.28;4.00;;;;;;;18.72;46.24;96064.72;6275325;22;20779;-79
2023/05/30 06:58:04;;;;;;;7.53;4.60;;;;;;;17.71;48.35;96058.31;6273907;22;20148;-79
2023/05/30 07:00:30;;;;;;;7.03;4.28;;;;;;;18.59;46.89;96061.91;6275100;22;20163;-79
2023/05/30 07:02:56;;;;;;;6.90;4.25;;;;;;;18.19;47.61;96061.41;6274973;22;20208;-80
2023/05/30 07:05:21;;;;;;;6.78;4.50;;;;;;;18.40;46.69;96060.69;6275249;22;20230;-77
2023/05/30 07:07:46;;;;;;;9.38;5.22;;;;;;;18.54;46.33;96061.63;6275900;22;20511;-79
2023/05/30 07:10:12;;;;;;;6.93;4.10;;;;;;;18.18;47.00;96054.53;6274814;22;20175;-78
2023/05/30 07:12:37;;;;;;;7.28;4.20;;;;;;;18.09;47.38;96050.34;6300442;22;20229;-78
2023/05/30 07:15:03;;;;;;;8.60;3.97;;;;;;;18.21;46.94;96056.81;6276697;22;20145;-79
2023/05/30 07:17:28;;;;;;;6.57;3.92;;;;;;;18.34;45.94;96048.25;6274274;22;20156;-80
2023/05/30 07:19:54;;;;;;;9.25;4.30;;;;;;;18.70;45.64;96056.19;6305595;22;20187;-77
2023/05/30 07:22:19;;;;;;;6.38;3.88;;;;;;;18.53;46.11;96050.31;6254315;22;20172;-79
2023/05/30 07:24:44;;;;;;;7.57;3.97;;;;;;;18.07;46.94;96052.34;6254725;22;20180;-78
2023/05/30 07:27:10;;;;;;;8.23;3.88;;;;;;;18.16;46.35;96045.19;6257830;22;20486;-79
2023/05/30 07:29:35;;;;;;;6.53;4.00;;;;;;;19.36;44.55;96048.97;6266532;22;20156;-78
2023/05/30 07:32:01;;;;;;;5.82;3.85;;;;;;;18.69;45.02;96054.56;6328979;22;20268;-76
2023/05/30 07:34:26;;;;;;;6.85;3.85;;;;;;;18.06;45.39;96064.69;6304412;22;20148;-77
2023/05/30 07:36:52;;;;;;;9.68;4.50;;;;;;;17.37;47.20;96057.94;6301438;22;20209;-78
2023/05/30 07:39:17;;;;;;;6.22;3.63;;;;;;;18.43;44.26;96070.00;6304344;22;20156;-77
2023/05/30 07:41:42;;;;;;;9.38;3.95;;;;;;;18.84;43.91;96063.25;6327213;22;20198;-78
2023/05/30 07:44:07;;;;;;;7.35;3.47;;;;;;;18.85;43.48;96061.44;6274712;22;20164;-78
2023/05/30 07:46:33;;;;;;;8.75;4.05;;;;;;;20.19;40.98;96067.59;6277137;22;20160;-79
2023/05/30 07:48:58;;;;;;;7.53;3.97;;;;;;;20.75;39.44;96067.44;6332431;22;20155;-78
2023/05/30 07:51:23;;;;;;;8.95;4.32;;;;;;;19.94;41.14;96064.59;6277496;22;20177;-79
2023/05/30 07:53:48;;;;;;;7.20;3.42;;;;;;;20.51;39.89;96058.25;6256344;22;20492;-79
2023/05/30 07:56:14;;;;;;;7.22;3.53;;;;;;;20.98;39.29;96062.66;6255606;22;20152;-79
2023/05/30 07:58:40;;;;;;;7.35;4.03;;;;;;;19.86;40.93;96062.91;6281898;22;20167;-80
2023/05/30 08:01:05;;;;;;;8.15;3.78;;;;;;;19.35;41.73;96063.13;6281920;22;20602;-79
2023/05/30 08:03:30;;;;;;;9.95;3.78;;;;;;;19.68;41.56;96057.31;6256390;22;20254;-78
2023/05/30 08:05:56;;;;;;;8.63;3.47;;;;;;;20.68;39.75;96058.72;6307529;22;20168;-78
2023/05/30 08:08:21;;;;;;;6.07;3.75;;;;;;;20.50;40.66;96069.81;6280840;22;20616;-79
2023/05/30 08:10:46;;;;;;;7.82;3.90;;;;;;;20.33;40.01;96064.84;6281984;22;20166;-80
2023/05/30 08:13:13;;;;;;;10.93;5.13;;;;;;;19.34;41.17;96063.28;6281421;22;20186;-79
2023/05/30 08:15:39;;;;;;;10.07;4.32;;;;;;;19.02;42.44;96065.44;6255929;22;20147;-79
2023/05/30 08:18:04;;;;;;;6.43;3.83;;;;;;;20.00;40.49;96059.38;6280746;22;20159;-80
2023/05/30 08:20:29;;;;;;;6.85;4.47;;;;;;;19.23;41.94;96062.81;6255423;22;20163;-80
2023/05/30 08:22:55;;;;;;;9.40;3.83;;;;;;;19.92;40.69;96056.06;6281205;22;20632;-80
2023/05/30 08:25:23;;;;;;;10.32;4.50;;;;;;;21.28;38.79;96067.59;6280089;22;20254;-80
2023/05/30 08:27:50;;;;;;;9.43;4.65;;;;;;;21.44;38.81;96052.16;6254921;22;20176;-79
2023/05/30 08:30:15;;;;;;;7.80;3.95;;;;;;;20.48;39.52;96054.16;6281166;22;20176;-78
2023/05/30 08:32:40;;;;;;;10.13;4.57;;;;;;;19.64;40.91;96050.81;6255573;22;20573;-78
2023/05/30 08:35:07;;;;;;;9.43;4.40;;;;;;;18.49;44.29;96056.13;6255258;22;20159;-79
2023/05/30 08:37:32;;;;;;;5.95;3.70;;;;;;;19.16;43.14;96054.03;6307733;22;20158;-79
2023/05/30 08:39:58;;;;;;;6.57;3.78;;;;;;;19.44;41.89;96048.00;6281475;22;20144;-78
2023/05/30 08:42:23;;;;;;;11.32;4.20;;;;;;;19.25;41.70;96054.72;6281647;22;20180;-79
2023/05/30 08:44:48;;;;;;;5.40;3.65;;;;;;;19.37;42.38;96058.47;6255743;22;20213;-79
2023/05/30 08:47:16;;;;;;;9.63;4.07;;;;;;;19.51;41.96;96057.56;6280535;22;20152;-79
2023/05/30 08:49:43;;;;;;;8.10;3.60;;;;;;;19.16;42.65;96055.84;6255832;22;20163;-80
2023/05/30 08:52:15;;;;;;;9.43;4.22;;;;;;;19.33;42.07;96051.94;6255299;22;20218;-80
2023/05/30 08:54:58;;;;;;;9.27;3.90;;;;;;;19.18;42.54;96053.88;6281875;22;20199;-79
2023/05/30 08:57:26;;;;;;;8.10;4.97;;;;;;;18.67;43.07;96056.56;6306026;22;20147;-80
2023/05/30 08:59:53;;;;;;;6.78;3.63;;;;;;;18.36;43.31;96054.94;6280972;22;20148;-78
2023/05/30 09:02:20;;;;;;;9.30;4.07;;;;;;;18.79;43.66;96054.25;6280668;22;20506;-79
2023/05/30 09:04:47;;;;;;;6.07;3.97;;;;;;;18.91;44.71;96050.97;6255055;22;20168;-80
2023/05/30 09:07:13;;;;;;;6.82;3.78;;;;;;;19.04;44.46;96042.38;6280063;22;20149;-79
2023/05/30 09:09:40;;;;;;;7.03;4.45;;;;;;;19.50;42.62;96050.69;6255438;22;20456;-80
2023/05/30 09:12:06;;;;;;;8.38;4.18;;;;;;;19.17;42.32;96058.31;6254633;22;20176;-80
2023/05/30 09:14:31;;;;;;;5.47;3.70;;;;;;;19.18;43.08;96049.41;6280604;22;20206;-80
2023/05/30 09:16:56;;;;;;;6.57;3.75;;;;;;;19.52;41.21;96048.69;6254171;22;20151;-78
2023/05/30 09:19:22;;;;;;;8.55;3.80;;;;;;;19.46;43.92;96043.38;6254781;22;20167;-80
2023/05/30 09:21:47;;;;;;;7.28;3.92;;;;;;;18.90;43.79;96049.31;6280501;22;20171;-80
2023/05/30 09:24:12;;;;;;;6.75;4.00;;;;;;;19.20;43.42;96039.50;6254947;22;20151;-80
2023/05/30 09:26:55;;;;;;;8.30;3.80;;;;;;;19.46;41.98;96044.16;6279310;22;20156;-79
2023/05/30 09:29:21;;;;;;;5.07;3.70;;;;;;;19.46;42.50;96046.81;6299406;22;20553;-79
2023/05/30 09:31:47;;;;;;;7.63;4.10;;;;;;;20.25;41.60;96045.72;6277714;22;20175;-80
2023/05/30 09:34:19;;;;;;;10.65;3.72;;;;;;;20.05;40.56;96040.31;6326291;22;20203;-79
2023/05/30 09:36:55;;;;;;;10.38;4.47;;;;;;;19.93;41.83;96062.97;6280373;22;20166;-77
2023/05/30 09:39:20;;;;;;;9.80;4.03;;;;;;;19.93;42.03;96055.88;6273622;22;20155;-79
2023/05/30 09:41:46;;;;;;;9.32;4.18;;;;;;;20.10;40.97;96059.03;6261339;22;20172;-79
2023/05/30 09:44:12;;;;;;;8.45;3.50;;;;;;;19.71;42.93;96054.31;6284531;22;20250;-79
2023/05/30 09:46:37;;;;;;;9.73;4.47;;;;;;;19.71;42.30;96055.13;6257216;22;20242;-79
2023/05/30 09:49:12;;;;;;;9.73;4.43;;;;;;;20.11;40.57;96062.47;6257465;22;20572;-79
2023/05/30 09:51:38;;;;;;;5.57;3.75;;;;;;;19.87;41.60;96067.19;6257310;22;20170;-80
2023/05/30 09:54:05;;;;;;;5.45;3.88;;;;;;;20.00;40.91;96062.00;6282098;22;20220;-79
2023/05/30 09:56:37;;;;;;;7.00;4.00;;;;;;;20.17;40.53;96059.88;6255358;22;20179;-79
2023/05/30 09:59:09;;;;;;;7.68;4.05;;;;;;;20.82;40.67;96065.66;6256511;22;20466;-79
2023/05/30 10:01:40;;;;;;;6.07;3.42;;;;;;;20.34;39.92;96065.66;6257631;22;20176;-79
2023/05/30 10:04:35;;;;;;;7.35;4.25;;;;;;;20.53;41.14;96062.31;6256699;22;20176;-78
2023/05/30 10:07:00;;;;;;;8.38;4.13;;;;;;;20.59;40.26;96052.81;6187952;23;20165;-78
2023/05/30 10:09:26;;;;;;;5.88;3.83;;;;;;;21.31;41.13;96051.38;6163623;23;20161;-78
2023/05/30 10:11:52;;;;;;;6.05;3.97;;;;;;;21.58;39.71;96041.63;6163488;23;20182;-79
2023/05/30 10:14:17;;;;;;;8.93;3.67;;;;;;;20.74;40.79;96050.81;6163645;23;20158;-79
2023/05/30 10:16:52;;;;;;;7.45;3.60;;;;;;;20.91;40.40;96045.97;6213168;23;20165;-79
2023/05/30 10:19:25;;;;;;;6.88;3.75;;;;;;;20.91;40.06;96049.44;6155539;23;20181;-80
2023/05/30 10:21:55;;;;;;;10.27;3.90;;;;;;;21.24;39.96;96046.03;6159485;23;20205;-80
2023/05/30 10:24:20;;;;;;;8.13;3.75;;;;;;;20.61;40.17;96051.59;6159010;23;20222;-78
2023/05/30 10:26:56;;;;;;;4.70;3.58;;;;;;;20.78;39.76;96044.13;6157023;23;20171;-79
2023/05/30 10:29:23;;;;;;;8.30;4.15;;;;;;;20.35;40.95;96048.81;6158768;23;20151;-79
2023/05/30 10:31:51;;;;;;;8.45;3.40;;;;;;;20.58;40.23;96038.81;6158234;23;20269;-80
2023/05/30 10:34:17;;;;;;;6.28;3.60;;;;;;;20.84;40.25;96040.69;6157731;23;20241;-78
2023/05/30 10:36:44;;;;;;;9.30;3.90;;;;;;;20.62;39.71;96040.00;6157220;23;20165;-78
2023/05/30 10:39:31;;;;;;;7.13;3.75;;;;;;;21.49;39.77;96027.78;6157312;23;20261;-80
2023/05/30 10:42:06;;;;;;;8.43;3.70;;;;;;;21.25;39.60;96028.38;6133756;23;20656;-81
2023/05/30 10:44:43;;;;;;;8.25;3.75;;;;;;;20.55;40.57;96027.81;6245730;22;20617;-80
2023/05/30 10:47:31;;;;;;;7.22;4.20;;;;;;;20.12;41.23;96035.91;6223100;22;20156;-79
2023/05/30 10:49:59;;;;;;;8.75;4.00;;;;;;;20.08;40.26;96035.50;6249185;22;20156;-79
2023/05/30 10:52:31;;;;;;;8.75;3.80;;;;;;;20.51;41.15;96029.22;6249623;22;20537;-79
2023/05/30 10:54:57;;;;;;;7.45;3.70;;;;;;;20.93;40.74;96036.84;6249985;22;20148;-79
2023/05/30 10:57:24;;;;;;;6.57;3.95;;;;;;;21.01;41.28;96035.03;6248897;22;20666;-79
2023/05/30 10:59:50;;;;;;;11.48;4.07;;;;;;;20.78;39.53;96028.28;6249259;22;20156;-79
2023/05/30 11:02:20;;;;;;;6.75;3.47;;;;;;;20.94;40.39;96029.75;6224199;22;20176;-79
2023/05/30 11:04:49;;;;;;;9.95;3.75;;;;;;;20.28;41.36;96025.03;6249349;22;20193;-79
2023/05/30 11:07:16;;;;;;;8.05;3.85;;;;;;;20.19;40.92;96025.41;6223006;22;20156;-79
2023/05/30 11:09:42;;;;;;;8.40;3.83;;;;;;;20.71;40.61;96029.28;6249536;22;20157;-79
2023/05/30 11:12:08;;;;;;;6.47;3.13;;;;;;;21.19;40.30;96044.00;6224256;22;20630;-79
2023/05/30 11:14:35;;;;;;;6.93;4.07;;;;;;;20.45;40.31;96019.47;6252331;22;20156;-79
2023/05/30 11:17:02;;;;;;;10.05;4.28;;;;;;;20.88;39.74;96022.63;6222535;22;20243;-79
2023/05/30 11:19:39;;;;;;;7.28;3.72;;;;;;;21.09;39.95;96016.34;6248871;22;20160;-79
2023/05/30 11:22:15;;;;;;;6.82;3.92;;;;;;;21.09;39.08;96024.28;6222871;22;20704;-79
2023/05/30 11:24:41;;;;;;;7.57;3.78;;;;;;;20.70;39.21;96017.09;6273007;22;20164;-79
2023/05/30 11:27:12;;;;;;;6.32;3.63;;;;;;;20.92;39.49;96015.91;6222393;22;20160;-78
2023/05/30 11:29:51;;;;;;;7.40;3.70;;;;;;;20.85;40.13;96030.97;6249559;22;20163;-78
2023/05/30 11:32:22;;;;;;;5.65;4.13;;;;;;;20.59;38.74;96014.03;6248869;22;20164;-79